< Cyclone 200511 2006 Season Cyclone 200605 >
Cyclone 200601 (BERTIE)
General InformationTrack Information on Google MapsDetailed Wind InformationList of All Images || ResourceGoogle EarthGE AnimationAtom FeedGeoJSON
Detalied Best Track (Time Zone = UTC)
Year Month Day Hour Lat. Long. Pressure (hPa) Wind (kt) Class Image Chart
2005 11 18 06 -4.4 95.5 1004 25 2 Image --
2005 11 18 12 -4.4 95.5 1002 25 2 Image --
2005 11 18 18 -4.7 95.0 1000 25 2 Image --
2005 11 19 00 -5.4 94.5 998 30 2 Image --
2005 11 19 06 -6.5 94.2 994 35 3 Image --
2005 11 19 12 -6.9 94.0 992 10 2 Image --
2005 11 19 18 -7.3 94.0 988 45 3 Image --
2005 11 20 00 -7.5 94.0 988 45 3 Image --
2005 11 20 06 -7.9 93.8 984 50 4 Image --
2005 11 20 12 -8.3 93.6 984 50 4 Image --
2005 11 20 18 -8.7 93.2 984 50 4 Image --
2005 11 21 00 -8.9 92.8 976 55 4 Image --
2005 11 21 06 -9.5 92.3 970 65 5 Image --
2005 11 21 12 -10.0 91.8 966 70 5 Image --
2005 11 21 18 -10.4 91.3 962 75 5 Image --
2005 11 22 00 -10.8 91.2 962 75 5 Image --
2005 11 22 06 -11.4 90.9 942 90 5 Image --
2005 11 22 12 -11.7 90.5 928 100 5 Image --
2005 11 22 18 -12.1 90.4 928 100 5 Image --
2005 11 23 00 -12.5 90.3 928 100 5 Image --
2005 11 23 06 -12.8 90.3 928 100 5 Image --
2005 11 23 12 -13.4 90.2 928 100 5 Image --
2005 11 23 18 -14.0 90.0 936 95 5 Image --
2005 11 24 00 -14.2 89.8 936 95 5 Image --
< Cyclone 200511 2006 Season Cyclone 200605 >

Help